Myrtle Beach, SC

7:41 AM EST on February 28, 2015 (GMT -0500)
Woodhaven Pancake House | Change Station
CLOSE
Current Station
Personal Weather Station
Location: Myrtle Beach, SC
Elevation: 21 ft
Nearby Weather Stations
Active Advisory: Flood Warning

Elev 21 ft 33.67 °N, 78.92 °W | Updated 3 seconds ago

Clear
Clear
32.6 °F
Feels Like 33 °F
N
3.0
Wind Variable Wind from North
Gusts 7.0 mph

Today
High -- | Low -- °F
--% Chance of Precip.
Yesterday
High -- | Low -- °F
Precip. -- in
6:45 AM 6:11 PM
Waxing Gibbous, 77% visible
Pressure 30.61 in
Visibility 10.0 miles
Clouds Clear
Windchill 33 °F
Dew Point 29 °F
Humidity 85%
Rainfall 0.00 in
Snow Depth Not available.
UV 0.0 out of 12
Pollen 7.00 out of 12
Air Quality Not available.
Flu Activity Not available.
METAR KMYR 281145Z 04010KT 10SM CLR 01/M02 A3061

More Conditions Fewer Conditions

Pressure 30.61 in
Visibility 10.0 miles
Clouds Clear
Windchill 33 °F
Dew Point 29 °F
Humidity 85%
Rainfall 0.00 in
Snow Depth Not available.
UV 0.0 out of 12
Pollen 7.00 out of 12
Air Quality Not available.
Flu Activity Not available.
METAR KMYR 281145Z 04010KT 10SM CLR 01/M02 A3061

More Conditions Fewer Conditions

10-Day Weather Forecast

Almanac

Astronomy

Feb. 28, 2015 Rise Set
Actual Time
Civil Twilight
Nautical Twilight
Astronomical Twilight
Moon
Length of Visible Light
Length of Day
Tomorrow will be .
, % of the Moon is Illuminated

Today's Extremes

State Highs State Lows

Community

WunderPhotos

Upload Photos

1,801,000 photos uploaded!

WunderBlogs® & News

Nearby

Air Quality

  Air Quality AQ Index Pollutant
Not available.

Snow Depth

Station Depth Elevation

Earthquake Activity

City Distance Mag. Time & Date
Minimum magnitude displayed is 2.5.

Coastal Water Temperatures

Place Temperature

Nearby Weather Stations

Flood Warning
Statement as of 12:54 AM EST on February 28, 2015

The National Weather Service in Wilmington NC has issued a

* Flood Warning for
the little Pee Dee at Galivants Ferry.
* From this morning until further notice.
* At 12:00 am Saturday the stage was 8.9 feet.
* Flood stage is 9.0 feet.
* Minor flooding is forecast.
* Forecast... rise above flood stage by this morning and continue to rise to near
9.4 feet by Wednesday evening. Additional rises are possible thereafter.
* Impact... at 9.0 feet... flood waters will begin to affect residential yards in
the Fork retch community upstream of Galivants Ferry near the town of Nichols.
Swampland flooding becomes noticeable and natural boat landings will be
flooded.


Lat... Lon 3423 7921 3419 7910 3405 7920 3398 7928
          3400 7938 3409 7930


31